createdAt,value
2023-01-09T00:00:50.434Z,8.30
2023-01-09T00:06:00.703Z,8.80
2023-01-09T00:11:05.617Z,8.90
2023-01-09T00:16:10.691Z,9.10
2023-01-09T00:21:15.457Z,8.70
2023-01-09T00:26:20.715Z,8.10
2023-01-09T00:31:24.749Z,8.30
2023-01-09T00:36:31.535Z,8.40
2023-01-09T00:41:42.098Z,8.30
2023-01-09T00:46:51.488Z,8.70
2023-01-09T00:51:56.437Z,8.70
2023-01-09T00:57:01.186Z,8.20
2023-01-09T01:02:05.965Z,8.20
2023-01-09T01:07:28.853Z,8.80
2023-01-09T01:12:33.032Z,7.90
2023-01-09T01:17:39.038Z,8.30
2023-01-09T01:22:43.357Z,8.40
2023-01-09T01:27:47.681Z,9.10
2023-01-09T01:32:52.135Z,9.00
2023-01-09T01:37:56.571Z,8.80
2023-01-09T01:43:01.035Z,9.20
2023-01-09T01:48:16.310Z,8.80
2023-01-09T01:53:25.487Z,8.60
2023-01-09T01:58:30.616Z,9.30
2023-01-09T02:03:35.875Z,8.60
2023-01-09T02:08:40.320Z,9.20
2023-01-09T02:13:44.984Z,9.70
2023-01-09T02:19:18.366Z,9.00
2023-01-09T02:24:36.537Z,8.20
2023-01-09T02:30:11.754Z,8.30
2023-01-09T02:35:36.280Z,9.80
2023-01-09T02:40:48.482Z,9.30
2023-01-09T02:45:52.967Z,8.40
2023-01-09T02:51:09.021Z,9.10
2023-01-09T02:56:51.952Z,9.00
2023-01-09T03:02:17.981Z,8.80
2023-01-09T03:07:38.085Z,9.30
2023-01-09T03:12:44.158Z,9.40
2023-01-09T03:17:51.269Z,9.40
2023-01-09T03:22:57.646Z,9.30
2023-01-09T03:28:04.860Z,9.50
2023-01-09T03:33:09.305Z,8.60
2023-01-09T03:38:13.839Z,8.80
2023-01-09T03:43:18.181Z,9.20
2023-01-09T03:48:22.422Z,9.10
2023-01-09T03:53:28.625Z,9.20
2023-01-09T03:58:32.737Z,8.80
2023-01-09T04:03:37.204Z,8.20
2023-01-09T04:08:41.732Z,8.80
2023-01-09T04:13:46.014Z,8.70
2023-01-09T04:18:50.297Z,9.40
2023-01-09T04:23:54.445Z,8.20
2023-01-09T04:28:58.663Z,8.80
2023-01-09T04:34:03.021Z,8.30
2023-01-09T04:39:07.353Z,9.60
2023-01-09T04:44:11.688Z,8.90
2023-01-09T04:49:16.014Z,8.90
2023-01-09T04:54:20.581Z,8.60
2023-01-09T04:59:25.239Z,8.90
2023-01-09T05:04:29.489Z,8.90
2023-01-09T05:09:33.998Z,8.30
2023-01-09T05:14:38.546Z,8.50
2023-01-09T05:19:46.145Z,8.20
2023-01-09T05:24:50.498Z,8.90
2023-01-09T05:29:54.739Z,8.50
2023-01-09T05:34:59.286Z,9.00
2023-01-09T05:40:03.929Z,7.80
2023-01-09T05:45:08.879Z,8.50
2023-01-09T05:50:35.118Z,7.80
2023-01-09T05:55:39.359Z,7.60
2023-01-09T06:00:43.829Z,7.90
2023-01-09T06:05:55.515Z,8.60
2023-01-09T06:11:00.874Z,8.40
2023-01-09T06:16:05.718Z,8.10
2023-01-09T06:21:10.058Z,8.10
2023-01-09T06:26:14.497Z,8.50
2023-01-09T06:31:18.677Z,7.30
2023-01-09T06:36:23.187Z,7.30
2023-01-09T06:41:32.535Z,7.70
2023-01-09T06:46:36.660Z,7.60
2023-01-09T06:51:40.907Z,8.10
2023-01-09T06:56:46.072Z,7.20
2023-01-09T07:01:50.415Z,7.60
2023-01-09T07:06:54.551Z,8.70
2023-01-09T07:12:01.382Z,8.00
2023-01-09T07:17:05.784Z,7.70
2023-01-09T07:22:19.637Z,8.00
2023-01-09T07:27:24.192Z,8.20
2023-01-09T07:32:31.522Z,7.20
2023-01-09T07:37:56.104Z,7.80
2023-01-09T07:43:00.432Z,7.60
2023-01-09T07:48:05.277Z,8.90
2023-01-09T07:53:09.423Z,8.30
2023-01-09T07:58:13.768Z,7.90
2023-01-09T08:03:18.492Z,7.80
2023-01-09T08:08:23.804Z,8.20
2023-01-09T08:13:28.104Z,7.20
2023-01-09T08:18:32.229Z,7.70
2023-01-09T08:23:39.749Z,9.00
2023-01-09T08:28:43.984Z,7.50
2023-01-09T08:33:48.432Z,7.30
2023-01-09T08:38:52.784Z,6.80
2023-01-09T08:44:15.940Z,6.80
2023-01-09T08:49:23.052Z,6.60
2023-01-09T08:54:26.984Z,7.50
2023-01-09T08:59:31.108Z,7.70
2023-01-09T09:04:35.459Z,7.60
2023-01-09T09:09:40.086Z,7.10
2023-01-09T09:15:03.118Z,7.20
2023-01-09T09:20:08.884Z,6.90
2023-01-09T09:25:13.207Z,8.00
2023-01-09T09:30:19.397Z,7.50
2023-01-09T09:35:23.788Z,6.60
2023-01-09T09:40:46.548Z,8.00
2023-01-09T09:46:00.907Z,6.40
2023-01-09T09:51:29.726Z,7.70
2023-01-09T09:56:39.910Z,6.80
2023-01-09T10:02:07.703Z,6.80
2023-01-09T10:07:42.828Z,7.70
2023-01-09T10:13:21.036Z,7.00
2023-01-09T10:18:38.051Z,6.90
2023-01-09T10:23:54.962Z,7.40
2023-01-09T10:29:26.109Z,8.00
2023-01-09T10:34:51.058Z,6.70
2023-01-09T10:40:01.418Z,7.90
2023-01-09T10:45:21.628Z,7.50
2023-01-09T10:50:31.605Z,7.10
2023-01-09T10:55:50.109Z,7.10
2023-01-09T11:00:54.592Z,7.40
2023-01-09T11:06:00.463Z,6.90
2023-01-09T11:11:04.894Z,7.10
2023-01-09T11:16:11.919Z,7.20
2023-01-09T11:21:28.633Z,7.10
2023-01-09T11:26:35.519Z,6.60
2023-01-09T11:31:42.039Z,7.40
2023-01-09T11:36:47.397Z,6.70
2023-01-09T11:42:43.074Z,7.20
2023-01-09T11:47:47.740Z,6.40
2023-01-09T11:53:14.073Z,6.50
2023-01-09T11:58:22.066Z,6.20
2023-01-09T12:04:04.187Z,6.80
2023-01-09T12:09:16.535Z,6.50
2023-01-09T12:14:59.233Z,6.60
2023-01-09T12:20:13.815Z,6.70
2023-01-09T12:25:41.660Z,6.50
2023-01-09T12:30:53.612Z,6.60
2023-01-09T12:36:16.343Z,6.90
2023-01-09T12:41:23.558Z,6.80
2023-01-09T12:46:51.432Z,7.30
2023-01-09T12:52:17.877Z,7.00
2023-01-09T12:57:31.877Z,6.50
2023-01-09T13:02:39.631Z,6.20
2023-01-09T13:08:07.223Z,6.80
2023-01-09T13:13:42.856Z,6.30
2023-01-09T13:18:59.828Z,7.00
2023-01-09T13:24:19.285Z,6.80
2023-01-09T13:29:29.171Z,7.20
2023-01-09T13:34:36.576Z,6.50
2023-01-09T13:39:43.355Z,6.10
2023-01-09T13:44:56.092Z,6.80
2023-01-09T13:50:05.955Z,6.80
2023-01-09T13:55:15.976Z,6.60
2023-01-09T14:00:20.464Z,5.80
2023-01-09T14:05:24.817Z,5.80
2023-01-09T14:10:56.463Z,6.00
2023-01-09T14:16:21.093Z,6.50
2023-01-09T14:21:25.522Z,6.10
2023-01-09T14:26:56.302Z,6.00
2023-01-09T14:32:23.336Z,6.00
2023-01-09T14:37:30.928Z,6.30
2023-01-09T14:42:40.807Z,5.80
2023-01-09T14:47:55.566Z,6.20
2023-01-09T14:53:22.154Z,5.60
2023-01-09T14:58:29.085Z,6.20
2023-01-09T15:03:44.508Z,5.60
2023-01-09T15:09:12.343Z,5.70
2023-01-09T15:14:33.299Z,5.70
2023-01-09T15:19:38.661Z,5.40
2023-01-09T15:24:42.802Z,5.90
2023-01-09T15:29:47.035Z,5.70
2023-01-09T15:34:51.785Z,5.80
2023-01-09T15:39:57.835Z,6.30
2023-01-09T15:45:02.617Z,5.70
2023-01-09T15:50:07.439Z,5.70
2023-01-09T15:55:37.804Z,5.80
2023-01-09T16:00:44.318Z,5.60
2023-01-09T16:05:53.034Z,5.70
2023-01-09T16:11:01.669Z,5.90
2023-01-09T16:16:07.131Z,5.50
2023-01-09T16:21:43.593Z,5.30
2023-01-09T16:26:47.852Z,5.20
2023-01-09T16:31:59.288Z,5.50
2023-01-09T16:37:05.807Z,5.20
2023-01-09T16:42:28.901Z,5.70
2023-01-09T16:47:33.128Z,5.40
2023-01-09T16:52:37.356Z,5.10
2023-01-09T16:57:42.035Z,5.00
2023-01-09T17:02:46.698Z,4.70
2023-01-09T17:07:50.996Z,5.00
2023-01-09T17:12:56.149Z,5.50
2023-01-09T17:18:01.328Z,5.20
2023-01-09T17:23:05.559Z,4.90
2023-01-09T17:28:34.076Z,5.10
2023-01-09T17:33:39.718Z,5.20
2023-01-09T17:38:43.958Z,4.90
2023-01-09T17:43:47.962Z,5.30
2023-01-09T17:48:53.683Z,4.70
2023-01-09T17:53:58.435Z,5.00
2023-01-09T17:59:02.543Z,4.50
2023-01-09T18:04:07.503Z,5.10
2023-01-09T18:09:16.076Z,4.50
2023-01-09T18:14:20.889Z,4.70
2023-01-09T18:19:25.220Z,5.00
2023-01-09T18:24:29.465Z,5.20
2023-01-09T18:29:33.898Z,5.30
2023-01-09T18:34:39.981Z,4.50
2023-01-09T18:39:44.414Z,4.70
2023-01-09T18:44:49.191Z,4.70
2023-01-09T18:49:53.932Z,4.40
2023-01-09T18:54:59.481Z,4.50
2023-01-09T19:00:06.481Z,4.80
2023-01-09T19:05:11.627Z,4.70
2023-01-09T19:10:16.818Z,4.40
2023-01-09T19:15:23.484Z,4.60
2023-01-09T19:20:28.759Z,4.60
2023-01-09T19:25:34.361Z,4.40
2023-01-09T19:30:43.154Z,4.90
2023-01-09T19:35:49.818Z,4.30
2023-01-09T19:40:54.799Z,4.20
2023-01-09T19:45:59.256Z,4.60
2023-01-09T19:51:06.236Z,4.30
2023-01-09T19:56:15.856Z,4.20
2023-01-09T20:01:27.539Z,4.90
2023-01-09T20:06:35.581Z,4.60
2023-01-09T20:11:42.231Z,4.00
2023-01-09T20:16:49.847Z,4.40
2023-01-09T20:21:54.998Z,4.00
2023-01-09T20:27:01.090Z,4.30
2023-01-09T20:32:08.814Z,4.10
2023-01-09T20:37:13.797Z,4.10
2023-01-09T20:42:18.718Z,4.20
2023-01-09T20:47:24.069Z,4.40
2023-01-09T20:52:29.302Z,4.60
2023-01-09T20:57:33.777Z,4.40
2023-01-09T21:02:38.114Z,4.00
2023-01-09T21:07:42.461Z,4.70
2023-01-09T21:12:46.901Z,4.30
2023-01-09T21:17:51.139Z,4.70
2023-01-09T21:22:55.675Z,4.60
2023-01-09T21:28:03.217Z,4.60
2023-01-09T21:33:07.950Z,4.60
2023-01-09T21:38:11.970Z,4.50
2023-01-09T21:43:46.700Z,4.90
2023-01-09T21:48:50.842Z,3.90
2023-01-09T21:53:55.082Z,5.10
2023-01-09T21:58:59.433Z,5.40
2023-01-09T22:04:04.118Z,4.90
2023-01-09T22:09:08.539Z,5.10
2023-01-09T22:14:15.211Z,5.30
2023-01-09T22:19:19.431Z,4.90
2023-01-09T22:24:23.782Z,5.40
2023-01-09T22:29:28.082Z,6.20
2023-01-09T22:34:32.762Z,5.00
2023-01-09T22:39:37.000Z,5.80
2023-01-09T22:44:41.345Z,5.70
2023-01-09T22:49:52.760Z,6.50
2023-01-09T22:54:57.694Z,5.60
2023-01-09T23:00:01.960Z,6.60
2023-01-09T23:05:07.021Z,8.10
2023-01-09T23:10:11.633Z,6.20
2023-01-09T23:15:16.186Z,6.10
2023-01-09T23:20:20.638Z,6.00
2023-01-09T23:25:25.063Z,5.60
2023-01-09T23:30:29.509Z,6.30
2023-01-09T23:35:33.641Z,5.80
2023-01-09T23:40:39.516Z,5.70
2023-01-09T23:45:45.541Z,5.80
2023-01-09T23:50:51.781Z,6.40
2023-01-09T23:55:55.802Z,6.30
